createdAt,value
2018-01-17T00:02:07.886Z,90.50
2018-01-17T00:04:37.618Z,90.50
2018-01-17T00:07:07.698Z,90.50
2018-01-17T00:09:37.286Z,90.50
2018-01-17T00:12:06.868Z,90.50
2018-01-17T00:14:36.346Z,90.50
2018-01-17T00:17:06.558Z,90.50
2018-01-17T00:19:36.039Z,90.40
2018-01-17T00:22:05.501Z,90.50
2018-01-17T00:24:35.022Z,90.60
2018-01-17T00:27:04.677Z,90.50
2018-01-17T00:29:34.889Z,90.80
2018-01-17T00:32:05.649Z,90.60
2018-01-17T00:34:35.398Z,90.60
2018-01-17T00:37:05.048Z,90.50
2018-01-17T00:39:34.901Z,90.60
2018-01-17T00:42:04.464Z,90.60
2018-01-17T00:44:35.620Z,90.60
2018-01-17T00:47:05.070Z,90.60
2018-01-17T00:49:34.586Z,90.50
2018-01-17T00:52:04.078Z,90.60
2018-01-17T00:54:33.478Z,90.60
2018-01-17T00:57:03.194Z,90.50
2018-01-17T00:59:32.762Z,90.50
2018-01-17T01:02:02.994Z,90.60
2018-01-17T01:04:32.525Z,90.60
2018-01-17T01:07:01.964Z,90.50
2018-01-17T01:09:31.444Z,90.60
2018-01-17T01:12:01.206Z,90.60
2018-01-17T01:14:30.752Z,90.60
2018-01-17T01:17:00.413Z,90.60
2018-01-17T01:19:30.159Z,90.60
2018-01-17T01:21:59.890Z,90.60
2018-01-17T01:24:29.482Z,90.60
2018-01-17T01:26:58.946Z,90.60
2018-01-17T01:29:28.429Z,90.60
2018-01-17T01:31:58.194Z,90.60
2018-01-17T01:34:27.647Z,90.90
2018-01-17T01:36:57.085Z,90.60
2018-01-17T01:39:26.639Z,90.60
2018-01-17T01:41:56.235Z,90.60
2018-01-17T01:44:25.683Z,90.60
2018-01-17T01:46:55.163Z,90.70
2018-01-17T01:49:25.058Z,90.60
2018-01-17T01:51:54.963Z,90.60
2018-01-17T01:54:24.409Z,90.70
2018-01-17T01:56:54.059Z,90.70
2018-01-17T01:59:23.775Z,91.00
2018-01-17T02:01:53.211Z,90.70
2018-01-17T02:04:23.618Z,90.70
2018-01-17T02:06:53.058Z,90.70
2018-01-17T02:09:23.556Z,90.60
2018-01-17T02:11:53.975Z,90.60
2018-01-17T02:14:23.628Z,90.60
2018-01-17T02:16:53.118Z,90.60
2018-01-17T02:19:23.134Z,90.60
2018-01-17T02:21:52.813Z,90.70
2018-01-17T02:24:22.526Z,90.70
2018-01-17T02:26:53.009Z,90.60
2018-01-17T02:29:23.474Z,90.60
2018-01-17T02:31:52.983Z,90.60
2018-01-17T02:34:22.509Z,90.70
2018-01-17T02:36:52.116Z,90.70
2018-01-17T02:39:23.162Z,90.70
2018-01-17T02:41:52.946Z,90.70
2018-01-17T02:44:22.417Z,91.00
2018-01-17T02:46:51.852Z,90.70
2018-01-17T02:49:21.434Z,90.70
2018-01-17T02:51:51.174Z,90.70
2018-01-17T02:54:20.609Z,90.70
2018-01-17T02:56:50.966Z,90.70
2018-01-17T02:59:20.617Z,90.70
2018-01-17T03:01:50.139Z,90.70
2018-01-17T03:04:19.771Z,90.70
2018-01-17T03:06:49.221Z,90.80
2018-01-17T03:09:18.851Z,90.70
2018-01-17T03:11:48.397Z,90.80
2018-01-17T03:14:17.963Z,91.00
2018-01-17T03:16:47.391Z,90.80
2018-01-17T03:19:17.627Z,90.80
2018-01-17T03:21:47.090Z,90.80
2018-01-17T03:24:17.309Z,90.80
2018-01-17T03:26:46.813Z,90.80
2018-01-17T03:29:16.261Z,90.60
2018-01-17T03:31:45.803Z,90.80
2018-01-17T03:34:16.789Z,90.80
2018-01-17T03:36:46.997Z,90.80
2018-01-17T03:39:16.434Z,90.80
2018-01-17T03:41:45.888Z,90.80
2018-01-17T03:44:15.359Z,90.80
2018-01-17T03:46:45.105Z,91.20
2018-01-17T03:49:14.558Z,90.80
2018-01-17T03:51:44.005Z,90.80
2018-01-17T03:54:13.629Z,90.80
2018-01-17T03:56:43.781Z,90.80
2018-01-17T03:59:13.334Z,90.80
2018-01-17T04:01:42.754Z,90.80
2018-01-17T04:04:12.270Z,90.80
2018-01-17T04:06:42.550Z,90.80
2018-01-17T04:09:12.081Z,90.80
2018-01-17T04:11:41.751Z,90.70
2018-01-17T04:14:11.300Z,90.80
2018-01-17T04:16:41.324Z,90.70
2018-01-17T04:19:10.783Z,90.80
2018-01-17T04:21:40.209Z,90.70
2018-01-17T04:24:09.813Z,90.70
2018-01-17T04:26:39.258Z,90.80
2018-01-17T04:29:09.466Z,90.70
2018-01-17T04:31:38.927Z,90.80
2018-01-17T04:34:08.343Z,90.80
2018-01-17T04:36:38.452Z,90.70
2018-01-17T04:39:08.087Z,90.70
2018-01-17T04:41:37.743Z,90.70
2018-01-17T04:44:07.246Z,90.80
2018-01-17T04:46:36.886Z,90.80
2018-01-17T04:49:06.501Z,90.70
2018-01-17T04:51:36.096Z,90.80
2018-01-17T04:54:06.229Z,90.70
2018-01-17T04:56:35.670Z,90.80
2018-01-17T04:59:05.141Z,90.80
2018-01-17T05:01:35.145Z,90.80
2018-01-17T05:04:05.154Z,90.80
2018-01-17T05:06:34.590Z,90.80
2018-01-17T05:09:05.723Z,90.80
2018-01-17T05:11:35.165Z,90.80
2018-01-17T05:14:04.589Z,90.80
2018-01-17T05:16:34.325Z,90.80
2018-01-17T05:19:03.813Z,90.80
2018-01-17T05:21:33.466Z,90.80
2018-01-17T05:24:02.898Z,90.80
2018-01-17T05:26:32.698Z,90.80
2018-01-17T05:29:02.255Z,90.80
2018-01-17T05:31:31.690Z,90.90
2018-01-17T05:34:01.253Z,90.90
2018-01-17T05:36:30.693Z,90.80
2018-01-17T05:39:00.397Z,90.80
2018-01-17T05:41:31.525Z,90.80
2018-01-17T05:44:00.997Z,90.80
2018-01-17T05:46:30.446Z,90.80
2018-01-17T05:48:59.885Z,90.90
2018-01-17T05:51:29.339Z,90.90
2018-01-17T05:53:58.779Z,90.90
2018-01-17T05:56:28.212Z,91.20
2018-01-17T05:58:57.674Z,90.80
2018-01-17T06:01:27.268Z,91.00
2018-01-17T06:03:56.713Z,90.90
2018-01-17T06:06:26.313Z,90.80
2018-01-17T06:08:55.770Z,90.80
2018-01-17T06:11:25.215Z,90.80
2018-01-17T06:13:54.657Z,90.80
2018-01-17T06:16:24.091Z,90.80
2018-01-17T06:18:54.490Z,90.80
2018-01-17T06:21:23.952Z,90.80
2018-01-17T06:23:53.407Z,90.80
2018-01-17T06:26:22.838Z,90.80
2018-01-17T06:28:52.282Z,90.80
2018-01-17T06:31:21.816Z,90.90
2018-01-17T06:33:51.383Z,90.80
2018-01-17T06:36:20.855Z,90.80
2018-01-17T06:38:50.471Z,90.80
2018-01-17T06:41:19.962Z,90.70
2018-01-17T06:43:50.213Z,90.70
2018-01-17T06:46:20.634Z,90.70
2018-01-17T06:48:50.417Z,90.70
2018-01-17T06:51:19.931Z,90.60
2018-01-17T06:53:49.686Z,90.60
2018-01-17T06:56:19.427Z,90.60
2018-01-17T06:58:49.031Z,90.60
2018-01-17T07:01:18.469Z,90.60
2018-01-17T07:03:48.070Z,90.60
2018-01-17T07:06:17.666Z,90.60
2018-01-17T07:08:47.207Z,90.60
2018-01-17T07:11:16.678Z,90.60
2018-01-17T07:13:46.215Z,90.60
2018-01-17T07:16:15.851Z,90.60
2018-01-17T07:18:45.491Z,90.60
2018-01-17T07:21:15.710Z,90.60
2018-01-17T07:23:45.381Z,90.50
2018-01-17T07:26:15.534Z,90.60
2018-01-17T07:28:45.212Z,90.60
2018-01-17T07:31:14.654Z,90.90
2018-01-17T07:33:44.104Z,90.60
2018-01-17T07:36:13.859Z,90.70
2018-01-17T07:38:43.332Z,90.80
2018-01-17T07:41:12.799Z,91.30
2018-01-17T07:43:43.921Z,91.80
2018-01-17T07:46:13.584Z,91.80
2018-01-17T07:48:43.056Z,91.80
2018-01-17T07:51:13.349Z,91.90
2018-01-17T07:53:42.879Z,91.90
2018-01-17T07:56:12.617Z,91.80
2018-01-17T07:58:42.300Z,91.90
2018-01-17T08:01:12.524Z,92.00
2018-01-17T08:03:42.236Z,91.90
2018-01-17T08:06:11.840Z,91.70
2018-01-17T08:08:41.543Z,91.70
2018-01-17T08:11:11.058Z,91.80
2018-01-17T08:13:40.686Z,91.70
2018-01-17T08:16:10.173Z,91.60
2018-01-17T08:18:39.965Z,91.60
2018-01-17T08:21:09.516Z,91.70
2018-01-17T08:23:38.987Z,91.60
2018-01-17T08:26:09.294Z,91.80
2018-01-17T08:28:38.795Z,91.70
2018-01-17T08:31:08.478Z,91.60
2018-01-17T08:33:38.268Z,91.60
2018-01-17T08:36:07.986Z,91.50
2018-01-17T08:38:38.319Z,91.50
2018-01-17T08:41:08.014Z,91.80
2018-01-17T08:58:29.069Z,91.20
2018-01-17T09:01:00.321Z,91.00
2018-01-17T10:13:31.213Z,91.60
2018-01-17T10:16:01.553Z,91.90
2018-01-17T10:18:32.630Z,92.00
2018-01-17T10:21:02.803Z,92.00
2018-01-17T10:23:38.449Z,92.10
2018-01-17T10:26:09.397Z,91.70
2018-01-17T10:28:40.336Z,91.70
2018-01-17T10:31:11.158Z,91.70
2018-01-17T10:33:40.653Z,91.70
2018-01-17T10:36:10.963Z,91.90
2018-01-17T10:38:40.829Z,91.90
2018-01-17T10:41:10.566Z,91.70
2018-01-17T10:43:40.353Z,91.70
2018-01-17T10:46:10.345Z,91.50
2018-01-17T10:48:40.234Z,91.40
2018-01-17T10:51:09.736Z,91.50
2018-01-17T10:53:39.258Z,91.40
2018-01-17T10:56:09.175Z,91.30
2018-01-17T10:58:38.644Z,91.30
2018-01-17T11:01:08.168Z,91.50
2018-01-17T11:03:37.634Z,91.40
2018-01-17T11:06:15.589Z,91.30
2018-01-17T11:08:52.044Z,91.30
2018-01-17T11:11:22.092Z,91.30
2018-01-17T11:13:52.070Z,91.40
2018-01-17T11:16:22.121Z,91.30
2018-01-17T11:18:52.173Z,91.20
2018-01-17T11:21:21.813Z,91.10
2018-01-17T11:23:52.554Z,91.10
2018-01-17T11:26:22.078Z,91.10
2018-01-17T11:28:51.957Z,91.10
2018-01-17T11:31:21.528Z,91.10
2018-01-17T11:33:50.991Z,91.20
2018-01-17T11:36:20.804Z,91.20
2018-01-17T11:38:50.531Z,91.30
2018-01-17T11:41:19.991Z,91.20
2018-01-17T11:43:49.625Z,91.10
2018-01-17T11:46:19.257Z,91.10
2018-01-17T11:48:49.642Z,91.00
2018-01-17T11:51:19.140Z,91.10
2018-01-17T11:53:48.602Z,91.00
2018-01-17T11:56:18.194Z,91.10
2018-01-17T11:58:48.225Z,91.00
2018-01-17T12:01:18.635Z,91.00
2018-01-17T12:03:48.094Z,91.00
2018-01-17T12:06:17.635Z,90.90
2018-01-17T12:08:47.476Z,90.90
2018-01-17T12:11:17.143Z,90.90
2018-01-17T12:13:46.994Z,90.90
2018-01-17T12:16:16.610Z,90.90
2018-01-17T12:18:46.197Z,91.30
2018-01-17T12:21:15.866Z,91.00
2018-01-17T12:23:45.301Z,91.00
2018-01-17T12:26:15.508Z,91.00
2018-01-17T12:28:45.170Z,91.00
2018-01-17T12:31:14.804Z,91.00
2018-01-17T12:33:44.264Z,91.10
2018-01-17T12:36:13.904Z,91.10
2018-01-17T12:38:43.391Z,91.10
2018-01-17T12:41:12.962Z,91.00
2018-01-17T12:43:42.627Z,91.00
2018-01-17T12:46:12.208Z,90.90
2018-01-17T12:48:41.898Z,91.10
2018-01-17T12:51:11.388Z,91.10
2018-01-17T12:53:41.251Z,91.10
2018-01-17T12:56:10.663Z,91.10
2018-01-17T12:58:40.461Z,91.00
2018-01-17T13:01:10.003Z,90.90
2018-01-17T13:03:40.455Z,90.60
2018-01-17T13:06:10.205Z,90.60
2018-01-17T13:08:39.710Z,90.50
2018-01-17T13:11:09.480Z,90.30
2018-01-17T13:13:39.159Z,90.00
2018-01-17T13:16:08.950Z,89.60
2018-01-17T13:18:38.905Z,90.40
2018-01-17T13:21:08.803Z,90.70
2018-01-17T13:23:38.389Z,90.70
2018-01-17T13:26:07.886Z,90.70
2018-01-17T13:28:37.365Z,90.60
2018-01-17T13:31:06.956Z,90.60
2018-01-17T13:33:37.211Z,90.60
2018-01-17T13:36:06.674Z,90.60
2018-01-17T13:38:36.163Z,90.60
2018-01-17T13:41:05.670Z,90.60
2018-01-17T13:43:35.394Z,90.80
2018-01-17T13:46:05.666Z,90.70
2018-01-17T13:48:35.261Z,90.80
2018-01-17T13:51:05.102Z,90.80
2018-01-17T13:53:34.825Z,90.70
2018-01-17T13:56:04.611Z,90.80
2018-01-17T13:58:34.075Z,90.90
2018-01-17T14:01:04.382Z,90.90
2018-01-17T14:03:34.811Z,90.90
2018-01-17T14:06:04.318Z,91.00
2018-01-17T14:08:34.589Z,90.90
2018-01-17T14:11:04.372Z,91.00
2018-01-17T14:13:34.118Z,90.90
2018-01-17T14:16:04.356Z,91.00
2018-01-17T14:18:34.376Z,91.20
2018-01-17T14:21:04.160Z,90.80
2018-01-17T14:23:35.695Z,90.90
2018-01-17T14:26:05.354Z,90.90
2018-01-17T14:28:34.998Z,91.00
2018-01-17T14:31:05.061Z,91.10
2018-01-17T14:33:34.771Z,90.90
2018-01-17T14:36:05.276Z,91.00
2018-01-17T14:38:35.012Z,91.00
2018-01-17T14:41:04.514Z,90.90
2018-01-17T14:43:34.188Z,90.90
2018-01-17T14:46:03.866Z,91.00
2018-01-17T14:48:33.444Z,90.90
2018-01-17T14:51:03.235Z,90.90
2018-01-17T14:53:32.778Z,90.90
2018-01-17T14:56:03.875Z,90.90
2018-01-17T14:58:33.923Z,90.90
2018-01-17T15:01:03.457Z,90.90
2018-01-17T15:03:32.956Z,91.10
2018-01-17T15:06:02.513Z,90.80
2018-01-17T15:08:32.250Z,90.80
2018-01-17T15:11:01.826Z,90.80
2018-01-17T15:13:31.776Z,90.80
2018-01-17T15:16:01.482Z,90.80
2018-01-17T15:18:31.281Z,90.70
2018-01-17T15:21:01.025Z,90.70
2018-01-17T15:23:31.373Z,90.80
2018-01-17T15:26:00.940Z,90.80
2018-01-17T15:28:30.751Z,90.70
2018-01-17T15:31:00.285Z,90.70
2018-01-17T15:33:30.015Z,90.80
2018-01-17T15:36:00.295Z,90.70
2018-01-17T15:38:30.700Z,90.70
2018-01-17T15:41:00.354Z,90.60
2018-01-17T15:43:30.403Z,90.60
2018-01-17T15:46:00.132Z,90.70
2018-01-17T15:48:29.653Z,90.70
2018-01-17T15:50:59.338Z,90.60
2018-01-17T15:53:28.969Z,90.70
2018-01-17T15:55:58.846Z,90.60
2018-01-17T15:58:28.752Z,90.60
2018-01-17T16:00:58.470Z,90.70
2018-01-17T16:03:28.105Z,90.70
2018-01-17T16:05:57.713Z,90.60
2018-01-17T16:08:27.284Z,90.60
2018-01-17T16:10:57.023Z,90.60
2018-01-17T16:13:26.694Z,90.60
2018-01-17T16:15:56.409Z,90.60
2018-01-17T16:18:26.011Z,90.60
2018-01-17T16:20:55.674Z,90.60
2018-01-17T16:23:25.229Z,90.60
2018-01-17T16:25:55.387Z,90.60
2018-01-17T16:28:24.892Z,90.60
2018-01-17T16:30:54.504Z,90.60
2018-01-17T16:33:24.002Z,90.60
2018-01-17T16:35:53.490Z,90.60
2018-01-17T16:38:23.000Z,90.60
2018-01-17T16:40:52.794Z,90.60
2018-01-17T16:43:22.734Z,90.60
2018-01-17T16:45:53.118Z,90.60
2018-01-17T16:48:22.972Z,90.60
2018-01-17T16:50:53.160Z,90.60
2018-01-17T16:53:23.118Z,90.60
2018-01-17T16:55:52.825Z,90.60
2018-01-17T16:58:22.845Z,90.60
2018-01-17T17:00:52.519Z,90.60
2018-01-17T17:03:22.568Z,90.60
2018-01-17T17:05:52.483Z,90.60
2018-01-17T17:08:22.522Z,90.60
2018-01-17T17:10:52.992Z,90.90
2018-01-17T17:13:23.046Z,90.90
2018-01-17T17:15:52.743Z,91.00
2018-01-17T17:18:22.429Z,91.10
2018-01-17T17:20:52.408Z,90.70
2018-01-17T17:23:22.276Z,91.00
2018-01-17T17:25:51.953Z,91.00
2018-01-17T17:28:21.672Z,90.70
2018-01-17T17:30:51.323Z,90.80
2018-01-17T17:33:21.236Z,90.80
2018-01-17T17:35:51.181Z,90.90
2018-01-17T17:38:21.089Z,90.80
2018-01-17T17:40:50.794Z,90.80
2018-01-17T17:43:20.585Z,90.60
2018-01-17T17:45:52.751Z,90.60
2018-01-17T17:48:22.730Z,90.60
2018-01-17T17:50:52.753Z,90.50
2018-01-17T17:53:22.739Z,90.60
2018-01-17T17:55:52.720Z,90.60
2018-01-17T17:58:24.176Z,90.50
2018-01-17T18:00:53.938Z,90.60
2018-01-17T18:03:24.610Z,90.60
2018-01-17T18:05:54.290Z,90.50
2018-01-17T18:08:24.095Z,90.60
2018-01-17T18:10:54.207Z,90.40
2018-01-17T18:13:23.940Z,90.50
2018-01-17T18:15:53.889Z,90.60
2018-01-17T18:18:23.747Z,90.40
2018-01-17T18:20:53.743Z,90.30
2018-01-17T18:23:24.281Z,90.40
2018-01-17T18:25:53.886Z,90.40
2018-01-17T18:28:23.576Z,90.40
2018-01-17T18:30:53.210Z,90.30
2018-01-17T18:33:23.478Z,90.30
2018-01-17T18:35:53.041Z,90.30
2018-01-17T18:38:23.085Z,90.30
2018-01-17T18:40:53.120Z,90.40
2018-01-17T18:43:22.656Z,90.30
2018-01-17T18:45:52.247Z,90.40
2018-01-17T18:48:21.870Z,90.40
2018-01-17T18:50:53.184Z,90.20
2018-01-17T18:53:22.708Z,90.20
2018-01-17T18:55:52.380Z,90.30
2018-01-17T18:58:21.972Z,90.30
2018-01-17T19:00:51.731Z,90.30
2018-01-17T19:03:21.298Z,90.30
2018-01-17T19:05:50.900Z,90.30
2018-01-17T19:08:20.846Z,90.30
2018-01-17T19:10:50.358Z,90.30
2018-01-17T19:13:20.514Z,90.40
2018-01-17T19:15:50.299Z,90.40
2018-01-17T19:18:19.927Z,90.30
2018-01-17T19:20:49.499Z,90.40
2018-01-17T19:23:19.315Z,90.40
2018-01-17T19:25:49.117Z,90.40
2018-01-17T19:28:19.087Z,90.40
2018-01-17T19:30:48.812Z,90.50
2018-01-17T19:33:18.476Z,90.50
2018-01-17T19:35:48.399Z,90.40
2018-01-17T19:38:17.901Z,90.40
2018-01-17T19:40:47.573Z,90.40
2018-01-17T19:43:17.249Z,90.40
2018-01-17T19:45:46.792Z,90.40
2018-01-17T19:48:16.468Z,90.60
2018-01-17T19:50:45.968Z,90.50
2018-01-17T19:53:15.867Z,90.50
2018-01-17T19:55:45.535Z,90.50
2018-01-17T19:58:15.448Z,90.40
2018-01-17T20:00:45.405Z,90.40
2018-01-17T20:03:15.526Z,90.50
2018-01-17T20:05:45.387Z,90.60
2018-01-17T20:08:15.275Z,90.50
2018-01-17T20:10:44.868Z,90.50
2018-01-17T20:13:14.405Z,90.80
2018-01-17T20:15:43.961Z,90.50
2018-01-17T20:18:13.490Z,90.50
2018-01-17T20:20:43.133Z,90.60
2018-01-17T20:23:12.972Z,90.50
2018-01-17T20:25:42.842Z,90.50
2018-01-17T20:28:12.900Z,90.50
2018-01-17T20:30:42.704Z,90.50
2018-01-17T20:33:12.665Z,90.40
2018-01-17T20:35:42.285Z,90.50
2018-01-17T20:38:12.413Z,90.40
2018-01-17T20:40:42.131Z,90.50
2018-01-17T20:43:12.168Z,90.50
2018-01-17T20:45:41.769Z,90.50
2018-01-17T20:48:11.713Z,90.50
2018-01-17T20:50:41.489Z,90.50
2018-01-17T20:53:11.059Z,90.50
2018-01-17T20:55:40.989Z,90.60
2018-01-17T20:58:10.585Z,90.50
2018-01-17T21:00:40.305Z,90.50
2018-01-17T21:03:10.173Z,90.50
2018-01-17T21:05:40.571Z,90.60
2018-01-17T21:08:10.197Z,90.50
2018-01-17T21:10:39.780Z,90.60
2018-01-17T21:13:09.470Z,90.60
2018-01-17T21:15:39.556Z,90.60
2018-01-17T21:18:10.454Z,90.60
2018-01-17T21:20:40.190Z,90.60
2018-01-17T21:23:10.016Z,90.60
2018-01-17T21:25:39.998Z,90.90
2018-01-17T21:28:09.812Z,90.60
2018-01-17T21:30:39.821Z,90.60
2018-01-17T21:33:09.674Z,90.60
2018-01-17T21:35:39.592Z,90.70
2018-01-17T21:38:09.290Z,90.80
2018-01-17T21:40:38.998Z,90.80
2018-01-17T21:43:12.678Z,90.80
2018-01-17T21:45:50.904Z,90.70
2018-01-17T21:48:20.753Z,90.60
2018-01-17T21:50:50.377Z,90.60
2018-01-17T21:53:19.847Z,90.60
2018-01-17T21:55:50.146Z,90.70
2018-01-17T21:58:19.673Z,90.70
2018-01-17T22:00:51.183Z,90.80
2018-01-17T22:03:20.671Z,90.70
2018-01-17T22:05:50.765Z,90.70
2018-01-17T22:08:21.017Z,90.80
2018-01-17T22:10:50.556Z,90.70
2018-01-17T22:13:20.150Z,90.70
2018-01-17T22:15:49.808Z,90.70
2018-01-17T22:18:22.232Z,90.70
2018-01-17T22:20:52.507Z,90.70
2018-01-17T22:23:22.048Z,90.80
2018-01-17T22:25:51.686Z,90.80
2018-01-17T22:28:21.242Z,90.70
2018-01-17T22:30:51.074Z,90.70
2018-01-17T22:33:21.004Z,90.70
2018-01-17T22:35:50.962Z,90.70
2018-01-17T22:38:21.334Z,90.80
2018-01-17T22:40:50.982Z,90.70
2018-01-17T22:43:20.549Z,90.70
2018-01-17T22:45:50.051Z,90.80
2018-01-17T22:48:19.550Z,90.70
2018-01-17T22:50:49.121Z,90.70
2018-01-17T22:53:18.774Z,90.80
2018-01-17T22:55:48.575Z,90.70
2018-01-17T22:58:18.303Z,90.80
2018-01-17T23:00:47.759Z,90.70
2018-01-17T23:03:17.291Z,90.80
2018-01-17T23:05:46.938Z,90.80
2018-01-17T23:08:16.410Z,90.80
2018-01-17T23:10:45.968Z,90.80
2018-01-17T23:13:15.559Z,90.80
2018-01-17T23:15:46.000Z,90.80
2018-01-17T23:18:15.971Z,90.80
2018-01-17T23:20:45.553Z,90.80
2018-01-17T23:23:15.015Z,90.80
2018-01-17T23:25:44.533Z,90.80
2018-01-17T23:28:14.745Z,90.80
2018-01-17T23:30:44.247Z,90.80
2018-01-17T23:33:14.115Z,90.80
2018-01-17T23:35:43.722Z,90.80
2018-01-17T23:38:13.175Z,90.80
2018-01-17T23:40:42.916Z,90.80
2018-01-17T23:43:12.445Z,90.70
2018-01-17T23:45:42.070Z,90.70
2018-01-17T23:48:11.588Z,90.70
2018-01-17T23:50:41.090Z,90.80
2018-01-17T23:53:12.350Z,90.70
2018-01-17T23:55:41.830Z,90.70
2018-01-17T23:58:11.667Z,90.70
